Horn Island Airport
YHID : now visible

Airfield :











YOU CAN JOIN US ON...

 
LOGIN :

Register | Disclaimer

   EN    FR    IT 

 









Legend :    VFR   Marginal VFR   IFR   Intensive IFR   Very Intensive IFR
Visi :
Ceiling :
>= 8 km
>= 3000ft
5 to 8 km
1000 to 3000 ft
1500m to 5 km
500 to 1000 ft
800 to 1500m
200 to 500 ft
< 800m
< 200 ft
Symbols :   Thunderstorms  Fog  Heavy snow  Heavy precipitations  Wind > 20 kt






- Airport Elevation : 43 ft
- IATA code : HID


YHID - Horn Island

CURRENT METAR :
  • 160730Z AUTO 06009KT 9999 // NCD 30/23 Q1006

EXPIRED METARs :
  • 160700Z AUTO 05011KT 9999 // SCT044 31/24 Q1006
  • 160630Z AUTO 09012KT 9999 // NCD 31/23 Q1005
  • 160600Z AUTO 06011KT 9999 // NCD 31/24 Q1006
  • 160530Z AUTO 08010KT 9999 // NCD 32/24 Q1006
  • 160500Z AUTO 05011KT 9999 // NCD 31/24 Q1006

TAF TAF YHID
Valid from the 16 at 06:00 until the 17 at 06:00 UTC


160503Z 1606/1706 07012KT 9999 SCT025
FM160900 12010KT 9999 SCT016
FM170000 08012KT 9999 SCT025



MET'MAP, your aeronautical weather chart ! - Copyright ORBIFLY December 2007 - Disclaimer

ORBIFLY MET'MAP TEAM :

Programming & Development : Alexandra Zaïnal
Concept & original design : Baudouin d'Aumeries
Assistance for programming : Marc-Olivier Méhu
Technical & hardware support : Manuel Goepfert

Contact : metmap@orbifly.com




SOURCES & CREDITS :

   NOAA       Earth
Advisory